Time;durP1;ratioP1;P1;durP2;ratioP2;P2;SDS_P1;SDS_P2;PMS_P1;PMS_P2;Temp;Humidity;BMP_temperature;BMP_pressure;BME280_temperature;BME280_humidity;BME280_pressure;Samples;Min_cycle;Max_cycle;Signal;HPM_P1;HPM_P2
2023/04/18 00:01:58;;;;;;;20.63;10.25;;;;;;;;;;6271833;28;20045;-57
2023/04/18 00:04:59;;;;;;;18.83;9.30;;;;;;;;;;6271431;28;20074;-57
2023/04/18 00:07:59;;;;;;;19.20;9.93;;;;;;;;;;6271028;28;20044;-55
2023/04/18 00:11:00;;;;;;;20.85;10.77;;;;;;;;;;6269613;28;20056;-53
2023/04/18 00:14:02;;;;;;;21.25;10.60;;;;;;;;;;6268230;28;20039;-52
2023/04/18 00:17:07;;;;;;;20.40;10.80;;;;;;;;;;6270227;28;20080;-56
2023/04/18 00:20:11;;;;;;;19.45;10.52;;;;;;;;;;6272041;28;20060;-55
2023/04/18 00:23:12;;;;;;;20.08;11.20;;;;;;;;;;6268394;28;20053;-54
2023/04/18 00:26:13;;;;;;;24.40;11.53;;;;;;;;;;6269431;28;20568;-56
2023/04/18 00:29:13;;;;;;;22.70;10.98;;;;;;;;;;6265342;28;20049;-53
2023/04/18 00:32:15;;;;;;;24.20;11.48;;;;;;;;;;6268096;28;20069;-54
2023/04/18 00:35:15;;;;;;;22.08;12.00;;;;;;;;;;6267459;28;20049;-58
2023/04/18 00:38:16;;;;;;;23.13;12.07;;;;;;;;;;6269764;28;20037;-55
2023/04/18 00:41:17;;;;;;;23.40;12.77;;;;;;;;;;6272411;28;20457;-56
2023/04/18 00:44:17;;;;;;;25.58;12.20;;;;;;;;;;6269516;28;20052;-58
2023/04/18 00:47:18;;;;;;;23.50;12.02;;;;;;;;;;6269092;28;20037;-55
2023/04/18 00:50:19;;;;;;;22.17;11.65;;;;;;;;;;6269700;28;20063;-58
2023/04/18 00:53:20;;;;;;;25.75;12.25;;;;;;;;;;6268435;28;20037;-55
2023/04/18 00:56:22;;;;;;;17.17;10.05;;;;;;;;;;6267995;28;20040;-53
2023/04/18 00:59:23;;;;;;;20.30;10.45;;;;;;;;;;6266557;28;20048;-59
2023/04/18 01:02:26;;;;;;;20.35;11.23;;;;;;;;;;6266774;28;20105;-52
2023/04/18 01:05:26;;;;;;;21.05;10.65;;;;;;;;;;6266590;28;20458;-54
2023/04/18 01:08:27;;;;;;;24.40;11.77;;;;;;;;;;6269558;28;20040;-55
2023/04/18 01:11:27;;;;;;;22.73;10.35;;;;;;;;;;6268795;28;20508;-57
2023/04/18 01:14:28;;;;;;;23.30;11.20;;;;;;;;;;6271350;28;20037;-55
2023/04/18 01:17:29;;;;;;;19.50;10.63;;;;;;;;;;6265793;28;20044;-57
2023/04/18 01:20:30;;;;;;;22.02;10.95;;;;;;;;;;6265509;28;20036;-58
2023/04/18 01:23:30;;;;;;;22.20;10.82;;;;;;;;;;6267205;28;20053;-56
2023/04/18 01:26:31;;;;;;;20.27;10.20;;;;;;;;;;6269141;28;20136;-57
2023/04/18 01:29:31;;;;;;;20.55;11.35;;;;;;;;;;6266752;28;20407;-57
2023/04/18 01:32:32;;;;;;;21.80;11.27;;;;;;;;;;6267087;28;20040;-56
2023/04/18 01:35:33;;;;;;;22.27;12.05;;;;;;;;;;6269459;28;20994;-52
2023/04/18 01:38:34;;;;;;;19.58;11.80;;;;;;;;;;6267230;28;20047;-58
2023/04/18 01:41:35;;;;;;;21.48;11.15;;;;;;;;;;6278028;28;20451;-57
2023/04/18 01:44:36;;;;;;;24.60;11.67;;;;;;;;;;6284328;28;20059;-57
2023/04/18 01:47:36;;;;;;;23.02;10.88;;;;;;;;;;6277534;28;20052;-56
2023/04/18 01:50:37;;;;;;;26.05;11.88;;;;;;;;;;6281441;28;20698;-57
2023/04/18 01:53:37;;;;;;;26.85;13.20;;;;;;;;;;6279807;28;20045;-57
2023/04/18 01:56:38;;;;;;;23.00;11.63;;;;;;;;;;6281824;28;20072;-56
2023/04/18 01:59:38;;;;;;;29.80;12.15;;;;;;;;;;6287661;28;20055;-56
2023/04/18 02:02:39;;;;;;;30.27;13.30;;;;;;;;;;6278332;28;20076;-59
2023/04/18 02:05:40;;;;;;;28.20;12.60;;;;;;;;;;6266579;28;20468;-58
2023/04/18 02:08:41;;;;;;;24.95;12.05;;;;;;;;;;6267959;28;20040;-56
2023/04/18 02:11:41;;;;;;;25.35;12.88;;;;;;;;;;6265679;28;20041;-55
2023/04/18 02:14:42;;;;;;;23.77;12.10;;;;;;;;;;6268189;28;20052;-56
2023/04/18 02:17:42;;;;;;;22.60;11.90;;;;;;;;;;6265629;28;20053;-57
2023/04/18 02:20:43;;;;;;;24.90;12.65;;;;;;;;;;6267178;28;20047;-56
2023/04/18 02:23:44;;;;;;;26.60;12.80;;;;;;;;;;6267750;28;20049;-57
2023/04/18 02:26:45;;;;;;;24.60;12.55;;;;;;;;;;6264890;28;20048;-55
2023/04/18 02:29:45;;;;;;;26.25;12.63;;;;;;;;;;6267357;28;20041;-56
2023/04/18 02:32:46;;;;;;;25.00;12.05;;;;;;;;;;6265820;28;20041;-57
2023/04/18 02:35:47;;;;;;;24.35;12.20;;;;;;;;;;6266630;28;20043;-53
2023/04/18 02:38:47;;;;;;;25.77;12.68;;;;;;;;;;6264418;28;20053;-57
2023/04/18 02:41:48;;;;;;;27.20;13.10;;;;;;;;;;6267749;28;20037;-56
2023/04/18 02:44:49;;;;;;;26.27;13.85;;;;;;;;;;6277346;28;20053;-56
2023/04/18 02:47:49;;;;;;;25.30;13.52;;;;;;;;;;6268219;28;21308;-56
2023/04/18 02:50:50;;;;;;;25.92;13.02;;;;;;;;;;6266878;28;20552;-57
2023/04/18 02:53:53;;;;;;;26.25;12.65;;;;;;;;;;6271060;28;20049;-54
2023/04/18 02:56:55;;;;;;;26.98;12.75;;;;;;;;;;6293014;28;20044;-55
2023/04/18 02:59:56;;;;;;;24.77;11.20;;;;;;;;;;6270297;28;20045;-54
2023/04/18 03:02:56;;;;;;;20.90;11.30;;;;;;;;;;6274472;28;20043;-54
2023/04/18 03:05:57;;;;;;;20.98;10.50;;;;;;;;;;6271134;28;20037;-55
2023/04/18 03:08:58;;;;;;;20.00;10.55;;;;;;;;;;6269520;28;20040;-56
2023/04/18 03:11:58;;;;;;;19.88;10.25;;;;;;;;;;6272096;28;20049;-58
2023/04/18 03:14:59;;;;;;;21.05;11.23;;;;;;;;;;6271888;28;20127;-57
2023/04/18 03:17:59;;;;;;;21.63;10.50;;;;;;;;;;6270376;28;20057;-55
2023/04/18 03:21:00;;;;;;;21.83;10.65;;;;;;;;;;6272119;28;20041;-55
2023/04/18 03:24:01;;;;;;;23.73;12.13;;;;;;;;;;6271895;28;20059;-58
2023/04/18 03:27:02;;;;;;;22.90;11.65;;;;;;;;;;6279132;28;20147;-55
2023/04/18 03:30:02;;;;;;;24.83;12.32;;;;;;;;;;6270264;28;20043;-57
2023/04/18 03:33:04;;;;;;;24.27;12.48;;;;;;;;;;6271974;28;20088;-59
2023/04/18 03:36:05;;;;;;;25.75;13.05;;;;;;;;;;6271820;28;20044;-56
2023/04/18 03:39:05;;;;;;;23.88;12.30;;;;;;;;;;6267763;28;20068;-56
2023/04/18 03:42:06;;;;;;;25.05;12.20;;;;;;;;;;6281429;28;20032;-57
2023/04/18 03:45:07;;;;;;;27.90;12.63;;;;;;;;;;6274531;28;20071;-55
2023/04/18 03:48:07;;;;;;;25.65;13.00;;;;;;;;;;6270532;28;20110;-54
2023/04/18 03:51:08;;;;;;;24.98;13.65;;;;;;;;;;6268334;28;20123;-55
2023/04/18 03:54:09;;;;;;;26.52;13.65;;;;;;;;;;6271941;28;20047;-54
2023/04/18 03:57:09;;;;;;;26.58;13.25;;;;;;;;;;6271280;28;20045;-57
2023/04/18 04:00:11;;;;;;;25.27;12.77;;;;;;;;;;6269711;28;20048;-56
2023/04/18 04:03:12;;;;;;;23.48;12.40;;;;;;;;;;6285638;28;20172;-58
2023/04/18 04:06:12;;;;;;;25.92;12.48;;;;;;;;;;6274297;28;20067;-57
2023/04/18 04:09:13;;;;;;;24.13;12.65;;;;;;;;;;6266741;28;20147;-55
2023/04/18 04:12:13;;;;;;;26.45;13.27;;;;;;;;;;6272740;28;20048;-57
2023/04/18 04:15:14;;;;;;;24.45;12.70;;;;;;;;;;6273067;28;20415;-57
2023/04/18 04:18:15;;;;;;;28.13;13.00;;;;;;;;;;6269518;28;20052;-53
2023/04/18 04:21:15;;;;;;;23.95;12.38;;;;;;;;;;6272623;28;20128;-56
2023/04/18 04:24:16;;;;;;;26.85;12.70;;;;;;;;;;6279660;28;20419;-54
2023/04/18 04:27:17;;;;;;;22.65;12.75;;;;;;;;;;6272670;28;20164;-54
2023/04/18 04:30:18;;;;;;;24.65;12.35;;;;;;;;;;6268972;28;20040;-58
2023/04/18 04:33:19;;;;;;;26.10;13.57;;;;;;;;;;6270098;28;20063;-56
2023/04/18 04:36:21;;;;;;;26.73;13.07;;;;;;;;;;6270548;28;20037;-55
2023/04/18 04:39:22;;;;;;;;;;;;;;;;;;6268325;28;20567;-55
2023/04/18 04:42:24;;;;;;;24.23;12.27;;;;;;;;;;6271528;28;19924;-57
2023/04/18 04:45:24;;;;;;;26.00;13.55;;;;;;;;;;6269639;28;20285;-54
2023/04/18 04:48:25;;;;;;;24.63;13.18;;;;;;;;;;6268126;28;20041;-55
2023/04/18 04:51:26;;;;;;;25.40;14.20;;;;;;;;;;6270802;28;20049;-57
2023/04/18 04:54:27;;;;;;;24.52;12.77;;;;;;;;;;6268250;28;20036;-53
2023/04/18 04:57:27;;;;;;;27.38;13.57;;;;;;;;;;6270261;28;20045;-57
2023/04/18 05:00:28;;;;;;;25.98;13.88;;;;;;;;;;6270092;28;20041;-56
2023/04/18 05:03:29;;;;;;;28.77;13.98;;;;;;;;;;6270163;28;20037;-55
2023/04/18 05:06:30;;;;;;;27.83;13.52;;;;;;;;;;6284474;28;20091;-57
2023/04/18 05:09:31;;;;;;;28.42;12.88;;;;;;;;;;6275732;28;20213;-57
2023/04/18 05:12:31;;;;;;;24.05;12.88;;;;;;;;;;6269613;28;20454;-55
2023/04/18 05:15:32;;;;;;;27.42;14.43;;;;;;;;;;6268239;28;20123;-57
2023/04/18 05:18:33;;;;;;;28.80;13.43;;;;;;;;;;6266909;28;20872;-53
2023/04/18 05:21:33;;;;;;;26.85;12.43;;;;;;;;;;6267412;28;20040;-57
2023/04/18 05:24:34;;;;;;;24.52;12.40;;;;;;;;;;6268693;28;20072;-57
2023/04/18 05:27:35;;;;;;;26.15;13.05;;;;;;;;;;6263541;28;20575;-55
2023/04/18 05:30:35;;;;;;;26.45;12.45;;;;;;;;;;6268587;28;20044;-57
2023/04/18 05:33:36;;;;;;;23.33;12.00;;;;;;;;;;6270480;28;20046;-57
2023/04/18 05:36:36;;;;;;;25.40;13.57;;;;;;;;;;6269961;28;20509;-52
2023/04/18 05:39:37;;;;;;;25.00;13.30;;;;;;;;;;6268727;28;20041;-57
2023/04/18 05:42:37;;;;;;;24.95;12.88;;;;;;;;;;6268957;28;20052;-55
2023/04/18 05:45:38;;;;;;;22.60;11.98;;;;;;;;;;6267130;28;20063;-56
2023/04/18 05:48:39;;;;;;;22.95;12.93;;;;;;;;;;6261385;28;20467;-58
2023/04/18 05:51:39;;;;;;;23.90;12.77;;;;;;;;;;6272730;28;20069;-56
2023/04/18 05:54:40;;;;;;;23.20;12.52;;;;;;;;;;6267846;28;20055;-57
2023/04/18 05:57:41;;;;;;;28.73;13.00;;;;;;;;;;6268213;28;20043;-59
2023/04/18 06:00:41;;;;;;;22.58;12.50;;;;;;;;;;6268574;28;20116;-56
2023/04/18 06:03:42;;;;;;;24.63;12.63;;;;;;;;;;6269080;28;20037;-57
2023/04/18 06:06:43;;;;;;;29.15;13.88;;;;;;;;;;6270114;28;20049;-58
2023/04/18 06:09:43;;;;;;;24.00;11.57;;;;;;;;;;6268915;28;20555;-55
2023/04/18 06:12:44;;;;;;;20.80;11.60;;;;;;;;;;6268490;28;20045;-54
2023/04/18 06:15:45;;;;;;;24.73;12.45;;;;;;;;;;6267625;28;20139;-55
2023/04/18 06:18:45;;;;;;;24.45;12.27;;;;;;;;;;6266228;28;20056;-59
2023/04/18 06:21:47;;;;;;;23.60;12.55;;;;;;;;;;6270355;28;20041;-57
2023/04/18 06:24:48;;;;;;;27.20;13.80;;;;;;;;;;6269369;28;20041;-58
2023/04/18 06:27:48;;;;;;;23.55;12.80;;;;;;;;;;6272577;28;20041;-56
2023/04/18 06:30:49;;;;;;;25.45;12.57;;;;;;;;;;6266288;28;20044;-59
2023/04/18 06:33:50;;;;;;;24.88;13.18;;;;;;;;;;6265377;28;20472;-57
2023/04/18 06:36:51;;;;;;;24.52;13.65;;;;;;;;;;6268437;28;20044;-54
2023/04/18 06:39:52;;;;;;;24.87;12.77;;;;;;;;;;6271617;28;20063;-56
2023/04/18 06:42:52;;;;;;;25.63;12.95;;;;;;;;;;6272987;28;20048;-53
2023/04/18 06:45:54;;;;;;;23.98;12.57;;;;;;;;;;6265718;28;20095;-58
2023/04/18 06:48:55;;;;;;;25.83;12.45;;;;;;;;;;6266260;28;20037;-54
2023/04/18 06:51:55;;;;;;;24.73;12.40;;;;;;;;;;6268333;28;20900;-54
2023/04/18 06:54:56;;;;;;;21.55;12.30;;;;;;;;;;6267138;28;20032;-54
2023/04/18 06:57:59;;;;;;;24.33;12.00;;;;;;;;;;6268462;28;20403;-53
2023/04/18 07:00:59;;;;;;;23.83;12.57;;;;;;;;;;6265394;28;20041;-57
2023/04/18 07:04:00;;;;;;;21.77;12.48;;;;;;;;;;6267478;28;20037;-54
2023/04/18 07:07:02;;;;;;;23.98;13.02;;;;;;;;;;6268154;28;20048;-56
2023/04/18 07:10:05;;;;;;;22.02;11.65;;;;;;;;;;6262610;28;20039;-57
2023/04/18 07:13:05;;;;;;;24.95;12.38;;;;;;;;;;6265313;28;20082;-56
2023/04/18 07:16:08;;;;;;;19.38;10.80;;;;;;;;;;6265025;28;20041;-57
2023/04/18 07:19:08;;;;;;;;;;;;;;;;;;6266556;28;20772;-56
2023/04/18 07:22:09;;;;;;;24.63;13.55;;;;;;;;;;6265644;28;19926;-57
2023/04/18 07:25:10;;;;;;;20.23;10.80;;;;;;;;;;6267704;28;20427;-56
2023/04/18 07:28:10;;;;;;;22.30;10.98;;;;;;;;;;6267635;28;20056;-58
2023/04/18 07:31:13;;;;;;;23.10;12.32;;;;;;;;;;6264149;28;20090;-57
2023/04/18 07:34:14;;;;;;;22.13;12.15;;;;;;;;;;6269252;28;20042;-59
2023/04/18 07:37:16;;;;;;;23.65;11.90;;;;;;;;;;6267177;28;20037;-59
2023/04/18 07:40:17;;;;;;;20.23;11.90;;;;;;;;;;6265660;28;20045;-58
2023/04/18 07:43:17;;;;;;;20.77;11.68;;;;;;;;;;6268048;28;20041;-58
2023/04/18 07:46:18;;;;;;;26.48;12.18;;;;;;;;;;6267843;28;20506;-56
2023/04/18 07:49:18;;;;;;;20.70;12.27;;;;;;;;;;6269096;28;20037;-54
2023/04/18 07:52:19;;;;;;;21.25;12.18;;;;;;;;;;6270259;28;20041;-59
2023/04/18 07:55:20;;;;;;;20.15;11.02;;;;;;;;;;6270307;28;20051;-53
2023/04/18 07:58:21;;;;;;;19.45;11.18;;;;;;;;;;6268861;28;20041;-57
2023/04/18 08:01:23;;;;;;;21.42;11.40;;;;;;;;;;6268782;28;20037;-57
2023/04/18 08:04:24;;;;;;;18.10;11.68;;;;;;;;;;6271199;28;20040;-58
2023/04/18 08:07:24;;;;;;;18.42;11.00;;;;;;;;;;6269015;28;20036;-55
2023/04/18 08:10:25;;;;;;;19.13;11.15;;;;;;;;;;6269053;28;20182;-59
2023/04/18 08:13:26;;;;;;;21.48;10.93;;;;;;;;;;6271036;28;20052;-53
2023/04/18 08:16:27;;;;;;;17.58;10.85;;;;;;;;;;6268660;28;20143;-58
2023/04/18 08:19:28;;;;;;;17.58;9.57;;;;;;;;;;6267646;28;20044;-54
2023/04/18 08:22:28;;;;;;;18.48;10.90;;;;;;;;;;6268961;28;20596;-58
2023/04/18 08:25:30;;;;;;;18.38;10.98;;;;;;;;;;6268538;28;20041;-59
2023/04/18 08:28:31;;;;;;;20.35;10.73;;;;;;;;;;6268938;28;20408;-55
2023/04/18 08:31:32;;;;;;;19.75;10.70;;;;;;;;;;6271896;28;20053;-57
2023/04/18 08:34:35;;;;;;;20.23;10.75;;;;;;;;;;6275152;28;20158;-54
2023/04/18 08:37:35;;;;;;;18.67;10.55;;;;;;;;;;6271802;28;20051;-55
2023/04/18 08:40:37;;;;;;;16.50;9.25;;;;;;;;;;6269703;28;20056;-59
2023/04/18 08:43:37;;;;;;;16.93;10.63;;;;;;;;;;6271092;28;20459;-56
2023/04/18 08:46:38;;;;;;;17.35;10.02;;;;;;;;;;6270239;28;20107;-55
2023/04/18 08:49:39;;;;;;;18.17;9.48;;;;;;;;;;6263988;28;20116;-56
2023/04/18 08:52:44;;;;;;;16.48;9.75;;;;;;;;;;6270563;28;20049;-54
2023/04/18 08:55:46;;;;;;;14.18;9.15;;;;;;;;;;6267087;28;20049;-54
2023/04/18 08:58:48;;;;;;;;;;;;;;;;;;6267571;28;20051;-56
2023/04/18 09:01:58;;;;;;;15.77;8.97;;;;;;;;;;6264609;28;19921;-58
2023/04/18 09:04:58;;;;;;;15.55;8.75;;;;;;;;;;6267877;28;20523;-57
2023/04/18 09:08:23;;;;;;;12.75;7.70;;;;;;;;;;6267085;28;20051;-56
2023/04/18 09:11:24;;;;;;;13.75;8.27;;;;;;;;;;6266049;28;20037;-58
2023/04/18 09:14:25;;;;;;;12.37;8.47;;;;;;;;;;6267907;28;20041;-54
2023/04/18 09:17:37;;;;;;;12.85;7.85;;;;;;;;;;6272200;28;20576;-57
2023/04/18 09:20:42;;;;;;;14.97;8.00;;;;;;;;;;6269902;28;20381;-56
2023/04/18 09:23:46;;;;;;;12.48;7.13;;;;;;;;;;6268171;28;20036;-54
2023/04/18 09:26:48;;;;;;;14.23;7.55;;;;;;;;;;6268928;28;20500;-56
2023/04/18 09:29:51;;;;;;;13.15;7.28;;;;;;;;;;6266649;28;20049;-56
2023/04/18 09:32:55;;;;;;;;;;;;;;;;;;6265180;28;20052;-54
2023/04/18 09:36:15;;;;;;;12.68;6.47;;;;;;;;;;6268205;28;19956;-55
2023/04/18 09:39:26;;;;;;;13.13;6.90;;;;;;;;;;6266630;28;20559;-57
2023/04/18 09:42:35;;;;;;;13.05;7.57;;;;;;;;;;6269190;28;20045;-58
2023/04/18 09:45:36;;;;;;;11.90;7.00;;;;;;;;;;6267193;28;20067;-56
2023/04/18 09:48:40;;;;;;;10.00;6.47;;;;;;;;;;6269985;28;20036;-56
2023/04/18 09:51:43;;;;;;;15.18;7.78;;;;;;;;;;6267235;28;20052;-57
2023/04/18 09:54:46;;;;;;;12.13;6.95;;;;;;;;;;6267437;28;20037;-53
2023/04/18 09:57:47;;;;;;;77.50;23.40;;;;;;;;;;6274578;28;20044;-53
2023/04/18 10:00:50;;;;;;;64.57;18.98;;;;;;;;;;6267758;28;20052;-57
2023/04/18 10:03:51;;;;;;;68.95;19.08;;;;;;;;;;6269250;28;20060;-55
2023/04/18 10:06:53;;;;;;;24.40;9.30;;;;;;;;;;6267170;28;20051;-52
2023/04/18 10:09:53;;;;;;;99.72;23.75;;;;;;;;;;6273723;28;20297;-55
2023/04/18 10:12:56;;;;;;;25.90;9.90;;;;;;;;;;6281441;28;20483;-55
2023/04/18 10:15:57;;;;;;;12.85;7.45;;;;;;;;;;6281028;28;20135;-50
2023/04/18 10:19:18;;;;;;;11.57;6.80;;;;;;;;;;6281312;28;20131;-55
2023/04/18 10:22:26;;;;;;;30.58;10.50;;;;;;;;;;6280442;28;20040;-55
2023/04/18 10:25:33;;;;;;;61.35;17.40;;;;;;;;;;6276246;28;20040;-56
2023/04/18 10:28:55;;;;;;;12.70;7.43;;;;;;;;;;6273900;28;20068;-56
2023/04/18 10:31:56;;;;;;;64.65;18.77;;;;;;;;;;6280016;28;20472;-57
2023/04/18 10:34:58;;;;;;;47.40;15.55;;;;;;;;;;6287015;28;20048;-57
2023/04/18 10:38:00;;;;;;;;;;;;;;;;;;6282635;28;20612;-57
2023/04/18 10:41:16;;;;;;;14.30;7.53;;;;;;;;;;6271162;28;19920;-55
2023/04/18 10:44:19;;;;;;;42.42;14.30;;;;;;;;;;6266299;28;20605;-54
2023/04/18 10:47:20;;;;;;;12.18;5.70;;;;;;;;;;6269888;28;20515;-53
2023/04/18 10:50:21;;;;;;;10.23;5.45;;;;;;;;;;6271753;28;20048;-57
2023/04/18 10:53:22;;;;;;;12.20;6.00;;;;;;;;;;6271596;28;20044;-56
2023/04/18 10:56:24;;;;;;;10.03;5.53;;;;;;;;;;6267845;28;20063;-55
2023/04/18 10:59:25;;;;;;;9.10;6.45;;;;;;;;;;6262448;28;20113;-56
2023/04/18 11:02:31;;;;;;;14.98;7.15;;;;;;;;;;6267300;28;20041;-55
2023/04/18 11:05:31;;;;;;;17.63;7.75;;;;;;;;;;6268020;28;20061;-58
2023/04/18 11:08:32;;;;;;;15.32;7.57;;;;;;;;;;6267483;28;20542;-57
2023/04/18 11:11:33;;;;;;;11.35;6.50;;;;;;;;;;6265488;28;20040;-56
2023/04/18 11:14:39;;;;;;;10.40;5.07;;;;;;;;;;6277996;28;20450;-55
2023/04/18 11:17:40;;;;;;;10.55;5.65;;;;;;;;;;6270074;28;20048;-54
2023/04/18 11:20:49;;;;;;;9.77;6.10;;;;;;;;;;6273955;28;20052;-57
2023/04/18 11:23:49;;;;;;;12.48;7.47;;;;;;;;;;6269941;28;20048;-57
2023/04/18 11:26:54;;;;;;;9.60;5.40;;;;;;;;;;6269911;28;20041;-57
2023/04/18 11:29:55;;;;;;;11.95;6.05;;;;;;;;;;6276054;28;20044;-58
2023/04/18 11:32:56;;;;;;;10.63;6.30;;;;;;;;;;6272361;28;20048;-56
2023/04/18 11:35:59;;;;;;;14.38;6.10;;;;;;;;;;6277652;28;20052;-58
2023/04/18 11:39:00;;;;;;;11.88;6.07;;;;;;;;;;6272291;28;20117;-57
2023/04/18 11:42:01;;;;;;;11.25;6.35;;;;;;;;;;6272306;28;20057;-57
2023/04/18 11:45:02;;;;;;;10.20;6.13;;;;;;;;;;6271594;28;20048;-57
2023/04/18 11:48:03;;;;;;;13.98;6.43;;;;;;;;;;6271737;28;20425;-58
2023/04/18 11:51:27;;;;;;;25.55;9.48;;;;;;;;;;6271804;28;20051;-55
2023/04/18 11:54:38;;;;;;;9.23;6.43;;;;;;;;;;6270831;28;20059;-57
2023/04/18 11:57:40;;;;;;;13.60;6.03;;;;;;;;;;6271655;28;20040;-59
2023/04/18 12:00:41;;;;;;;11.30;6.03;;;;;;;;;;6272663;28;20535;-57
2023/04/18 12:03:43;;;;;;;11.25;5.85;;;;;;;;;;6269240;28;20506;-58
2023/04/18 12:06:47;;;;;;;13.63;6.47;;;;;;;;;;6273739;28;20067;-58
2023/04/18 12:09:51;;;;;;;11.65;5.68;;;;;;;;;;6273763;28;20066;-57
2023/04/18 12:12:53;;;;;;;8.30;5.47;;;;;;;;;;6271141;28;20080;-56
2023/04/18 12:15:54;;;;;;;9.73;5.40;;;;;;;;;;6273079;28;20032;-58
2023/04/18 12:19:00;;;;;;;7.55;5.00;;;;;;;;;;6272288;28;20057;-58
2023/04/18 12:22:03;;;;;;;13.52;7.03;;;;;;;;;;6271722;28;20045;-52
2023/04/18 12:25:21;;;;;;;8.13;5.10;;;;;;;;;;6267369;28;20609;-58
2023/04/18 12:28:25;;;;;;;8.35;4.70;;;;;;;;;;6271287;28;20171;-58
2023/04/18 12:31:27;;;;;;;8.77;5.15;;;;;;;;;;6271722;28;20056;-59
2023/04/18 12:34:28;;;;;;;8.32;4.35;;;;;;;;;;6266290;28;20075;-54
2023/04/18 12:37:28;;;;;;;7.47;4.40;;;;;;;;;;6269572;28;20045;-58
2023/04/18 12:40:29;;;;;;;6.93;4.05;;;;;;;;;;6273628;28;20040;-59
2023/04/18 12:43:30;;;;;;;9.80;4.32;;;;;;;;;;6268167;28;20514;-58
2023/04/18 12:46:30;;;;;;;7.88;4.15;;;;;;;;;;6269802;28;20055;-59
2023/04/18 12:49:31;;;;;;;6.30;3.80;;;;;;;;;;6270292;28;20083;-56
2023/04/18 12:52:32;;;;;;;6.55;3.78;;;;;;;;;;6272237;28;20049;-58
2023/04/18 12:55:32;;;;;;;6.13;3.53;;;;;;;;;;6264778;28;20135;-57
2023/04/18 12:58:33;;;;;;;7.35;3.90;;;;;;;;;;6270850;28;20056;-53
2023/04/18 13:01:33;;;;;;;6.68;4.07;;;;;;;;;;6271901;28;20056;-59
2023/04/18 13:04:34;;;;;;;7.20;4.25;;;;;;;;;;6281275;28;21223;-58
2023/04/18 13:07:39;;;;;;;7.13;3.80;;;;;;;;;;6272017;28;20720;-57
2023/04/18 13:10:40;;;;;;;7.93;3.70;;;;;;;;;;6272333;28;20040;-54
2023/04/18 13:13:40;;;;;;;8.30;5.20;;;;;;;;;;6268980;28;20568;-56
2023/04/18 13:16:41;;;;;;;6.75;3.88;;;;;;;;;;6268450;28;20049;-57
2023/04/18 13:19:41;;;;;;;8.18;4.22;;;;;;;;;;6271415;28;20052;-58
2023/04/18 13:22:43;;;;;;;9.70;5.32;;;;;;;;;;6271038;28;20040;-59
2023/04/18 13:25:44;;;;;;;8.25;5.00;;;;;;;;;;6271007;28;20044;-59
2023/04/18 13:28:45;;;;;;;28.17;16.73;;;;;;;;;;6271360;28;20707;-59
2023/04/18 13:31:45;;;;;;;7.85;4.40;;;;;;;;;;6270382;28;20067;-57
2023/04/18 13:34:47;;;;;;;8.73;4.70;;;;;;;;;;6265048;28;20779;-59
2023/04/18 13:37:47;;;;;;;8.45;4.97;;;;;;;;;;6267355;28;20052;-57
2023/04/18 13:40:48;;;;;;;10.10;6.63;;;;;;;;;;6269792;28;20052;-58
2023/04/18 13:43:49;;;;;;;8.43;5.28;;;;;;;;;;6267159;28;20036;-58
2023/04/18 13:46:52;;;;;;;12.52;8.88;;;;;;;;;;6269218;28;20151;-57
2023/04/18 13:49:53;;;;;;;15.70;10.48;;;;;;;;;;6270139;28;20049;-56
2023/04/18 13:52:54;;;;;;;10.07;5.30;;;;;;;;;;6269430;28;20637;-59
2023/04/18 13:55:54;;;;;;;8.52;4.50;;;;;;;;;;6268317;28;20111;-58
2023/04/18 13:58:55;;;;;;;8.52;4.72;;;;;;;;;;6270508;28;20067;-58
2023/04/18 14:01:56;;;;;;;7.60;4.38;;;;;;;;;;6272636;28;20078;-58
2023/04/18 14:04:56;;;;;;;8.07;4.03;;;;;;;;;;6263544;28;20060;-58
2023/04/18 14:08:03;;;;;;;7.78;4.00;;;;;;;;;;6268484;28;20175;-60
2023/04/18 14:11:04;;;;;;;7.10;4.22;;;;;;;;;;6269578;28;20037;-57
2023/04/18 14:14:06;;;;;;;7.68;4.60;;;;;;;;;;6270457;28;20071;-57
2023/04/18 14:17:06;;;;;;;23.02;15.88;;;;;;;;;;6269577;28;20153;-59
2023/04/18 14:20:08;;;;;;;10.75;8.05;;;;;;;;;;6271544;28;20051;-58
2023/04/18 14:23:08;;;;;;;7.95;5.25;;;;;;;;;;6272298;28;20474;-57
2023/04/18 14:26:09;;;;;;;10.65;6.30;;;;;;;;;;6269094;28;20048;-58
2023/04/18 14:29:10;;;;;;;11.02;5.25;;;;;;;;;;6268488;28;20488;-58
2023/04/18 14:32:12;;;;;;;9.02;5.20;;;;;;;;;;6270159;28;20057;-59
2023/04/18 14:35:13;;;;;;;;;;;;;;;;;;6268611;28;20044;-57
2023/04/18 14:38:14;;;;;;;11.32;7.85;;;;;;;;;;6272047;28;19940;-58
2023/04/18 14:41:15;;;;;;;10.73;6.45;;;;;;;;;;6272131;28;20082;-55
2023/04/18 14:44:16;;;;;;;9.80;4.30;;;;;;;;;;6267416;28;20763;-59
2023/04/18 14:47:16;;;;;;;8.68;3.92;;;;;;;;;;6270354;28;20106;-59
2023/04/18 14:50:17;;;;;;;7.47;3.28;;;;;;;;;;6268554;28;20044;-58
2023/04/18 14:53:18;;;;;;;8.32;3.50;;;;;;;;;;6270713;28;20454;-59
2023/04/18 14:56:20;;;;;;;8.00;3.40;;;;;;;;;;6273846;28;20049;-58
2023/04/18 14:59:20;;;;;;;7.20;3.28;;;;;;;;;;6274388;28;20048;-59
2023/04/18 15:02:21;;;;;;;8.40;3.50;;;;;;;;;;6275368;28;20052;-58
2023/04/18 15:05:25;;;;;;;7.15;4.15;;;;;;;;;;6271334;28;20636;-59
2023/04/18 15:08:25;;;;;;;8.13;4.07;;;;;;;;;;6275820;28;20116;-57
2023/04/18 15:11:26;;;;;;;10.50;5.55;;;;;;;;;;6274447;28;20049;-58
2023/04/18 15:14:27;;;;;;;11.27;6.25;;;;;;;;;;6271889;28;20063;-59
2023/04/18 15:17:28;;;;;;;11.15;7.28;;;;;;;;;;6273812;28;20049;-59
2023/04/18 15:20:28;;;;;;;11.40;6.20;;;;;;;;;;6275144;28;20145;-59
2023/04/18 15:23:29;;;;;;;11.52;7.03;;;;;;;;;;6272279;28;20048;-59
2023/04/18 15:26:30;;;;;;;11.95;5.93;;;;;;;;;;6271770;28;20441;-58
2023/04/18 15:29:31;;;;;;;12.23;6.30;;;;;;;;;;6273277;28;20045;-59
2023/04/18 15:32:31;;;;;;;10.85;5.72;;;;;;;;;;6271945;28;20084;-58
2023/04/18 15:35:32;;;;;;;9.93;6.15;;;;;;;;;;6269056;28;20053;-58
2023/04/18 15:38:33;;;;;;;12.13;6.68;;;;;;;;;;6273615;28;20079;-56
2023/04/18 15:41:35;;;;;;;12.77;7.03;;;;;;;;;;6273230;28;20056;-57
2023/04/18 15:44:35;;;;;;;;;;;;;;;;;;6269682;28;20056;-56
2023/04/18 15:47:37;;;;;;;12.45;7.32;;;;;;;;;;6271213;28;20457;-58
2023/04/18 15:50:38;;;;;;;11.03;6.80;;;;;;;;;;6274015;28;20588;-54
2023/04/18 15:53:38;;;;;;;15.13;7.47;;;;;;;;;;6272512;28;20385;-58
2023/04/18 15:56:39;;;;;;;19.95;9.48;;;;;;;;;;6272423;28;20772;-56
2023/04/18 15:59:40;;;;;;;15.30;8.00;;;;;;;;;;6272267;28;20101;-56
2023/04/18 16:02:44;;;;;;;12.77;7.88;;;;;;;;;;6271792;28;20096;-57
2023/04/18 16:05:46;;;;;;;13.05;8.18;;;;;;;;;;6271118;28;20217;-56
2023/04/18 16:08:46;;;;;;;13.70;7.40;;;;;;;;;;6275439;28;22339;-59
2023/04/18 16:11:47;;;;;;;12.35;7.13;;;;;;;;;;6276819;28;20059;-58
2023/04/18 16:14:48;;;;;;;14.48;8.10;;;;;;;;;;6270563;28;20052;-57
2023/04/18 16:17:48;;;;;;;15.82;8.38;;;;;;;;;;6274260;28;20048;-58
2023/04/18 16:20:49;;;;;;;18.30;9.80;;;;;;;;;;6276377;28;20056;-58
2023/04/18 16:23:50;;;;;;;16.85;10.00;;;;;;;;;;6280597;28;20181;-57
2023/04/18 16:26:52;;;;;;;23.33;12.23;;;;;;;;;;6277826;28;20388;-58
2023/04/18 16:29:53;;;;;;;25.23;11.95;;;;;;;;;;6282935;28;20044;-58
2023/04/18 16:32:53;;;;;;;19.48;10.13;;;;;;;;;;6282211;28;20529;-57
2023/04/18 16:35:57;;;;;;;15.25;8.60;;;;;;;;;;6278327;28;20777;-57
2023/04/18 16:38:58;;;;;;;15.23;8.88;;;;;;;;;;6280410;28;20462;-58
2023/04/18 16:41:58;;;;;;;13.63;8.10;;;;;;;;;;6280675;28;20087;-58
2023/04/18 16:45:00;;;;;;;13.95;8.75;;;;;;;;;;6277563;28;20384;-54
2023/04/18 16:48:01;;;;;;;;;;;;;;;;;;6277131;28;20040;-56
2023/04/18 16:51:01;;;;;;;17.42;8.70;;;;;;;;;;6277778;28;19932;-57
2023/04/18 16:54:03;;;;;;;15.50;8.90;;;;;;;;;;6278873;28;20080;-58
2023/04/18 16:57:04;;;;;;;13.20;8.90;;;;;;;;;;6277237;28;20052;-58
2023/04/18 17:00:05;;;;;;;14.25;8.52;;;;;;;;;;6276335;28;20055;-59
2023/04/18 17:03:06;;;;;;;15.88;8.50;;;;;;;;;;6273601;28;20040;-56
2023/04/18 17:06:07;;;;;;;13.18;8.20;;;;;;;;;;6278446;28;20044;-57
2023/04/18 17:09:07;;;;;;;13.50;8.63;;;;;;;;;;6280240;28;20139;-56
2023/04/18 17:12:08;;;;;;;14.20;8.02;;;;;;;;;;6296245;28;20044;-54
2023/04/18 17:15:09;;;;;;;15.90;8.68;;;;;;;;;;6281372;28;20068;-54
2023/04/18 17:18:10;;;;;;;15.13;8.50;;;;;;;;;;6286980;28;20163;-58
2023/04/18 17:21:11;;;;;;;14.70;8.68;;;;;;;;;;6286059;28;20055;-58
2023/04/18 17:24:12;;;;;;;14.23;8.15;;;;;;;;;;6284109;28;20048;-57
2023/04/18 17:27:12;;;;;;;16.60;8.80;;;;;;;;;;6284126;28;20064;-57
2023/04/18 17:30:13;;;;;;;15.52;8.52;;;;;;;;;;6287568;28;20045;-58
2023/04/18 17:33:13;;;;;;;15.88;8.73;;;;;;;;;;6282662;28;20052;-59
2023/04/18 17:36:14;;;;;;;16.30;9.50;;;;;;;;;;6284283;28;20117;-58
2023/04/18 17:39:15;;;;;;;18.05;10.05;;;;;;;;;;6285827;28;20044;-56
2023/04/18 17:42:18;;;;;;;18.10;10.68;;;;;;;;;;6288576;28;20044;-58
2023/04/18 17:45:19;;;;;;;19.58;11.50;;;;;;;;;;6283930;28;20062;-57
2023/04/18 17:48:20;;;;;;;13.60;9.30;;;;;;;;;;6287498;28;20048;-54
2023/04/18 17:51:21;;;;;;;17.15;9.70;;;;;;;;;;6284568;28;20496;-58